• Join FlightAware (Why Join?)
  • Login
  • US Flag 
12:38PM EDT


 

Airport Tracker/Info


-or-


 

Live Flight TrackerFlight Track Log ✈ QTR46 ✈ 11-Apr-2013 ✈ EGCC / MAN - OTBD / DOH

Flight Track Log - Related Links

Times and Time Zones

All times are in EDT time to prevent confusion due to time zone crossing. See the QTR46 flight status page for this flight to view local times or setup timezone preferences in your user account.

Time Position Orientation Groundspeed Altitude Reporting Facility
EDT Latitude Longitude Course Direction KTS MPH feet Rate Location/Type
10:36AM 53.3580 -2.2660 61° Northeast 159 183 800  Level FlightAware
10:37AM 53.3700 -2.2350 57° Northeast 154 177 2,000 1,680 Climbing FlightAware
10:37AM 53.3820 -2.2010 59° Northeast 180 207 2,500 900 Climbing FlightAware
10:37AM 53.3870 -2.1900 53° Northeast 191 220 2,600 720 Climbing FlightAware
10:38AM 53.4070 -2.1520 49° Northeast 231 266 3,000 1,080 Climbing FlightAware
10:38AM 53.4250 -2.1130 52° Northeast 261 300 3,600 1,800 Climbing FlightAware
10:39AM 53.4360 -2.0880 54° Northeast 270 311 4,200 2,400 Climbing FlightAware
10:39AM 53.4580 -2.0400 52° Northeast 275 316 5,400 2,520 Climbing FlightAware
10:39AM 53.4690 -2.0100 58° Northeast 278 320 6,100 2,820 Climbing FlightAware
10:40AM 53.4780 -1.9590 73° East 280 322 7,300 2,700 Climbing FlightAware
10:40AM 53.4880 -1.8920 76° East 291 335 8,600 2,640 Climbing FlightAware
10:41AM 53.4930 -1.8610 75° East 293 337 9,300 2,160 Climbing FlightAware
10:41AM 53.5060 -1.7710 76° East 311 358 10,600 1,740 Climbing FlightAware
10:42AM 53.5240 -1.6580 75° East 346 398 11,800 2,220 Climbing FlightAware
10:43AM 53.5370 -1.5670 76° East 342 394 13,600 2,460 Climbing FlightAware
10:43AM 53.5310 -1.5110 100° East 338 389 14,100 1,980 Climbing FlightAware
10:44AM 53.5090 -1.4070 110° East 346 398 15,600 2,160 Climbing FlightAware
10:44AM 53.4870 -1.3020 109° East 359 413 17,000 1,800 Climbing FlightAware
10:45AM 53.4620 -1.1810 109° East 379 436 18,200 1,620 Climbing FlightAware
10:46AM 53.4390 -1.0700 109° East 393 452 19,300 1,680 Climbing FlightAware
10:46AM 53.4120 -0.9370 109° East 408 470 20,600 1,680 Climbing FlightAware
10:47AM 53.3859 -0.8077 109° East 421 484 21,700 1,800 Climbing FlightAware ADS-B
10:48AM 53.3662 -0.7123 109° East 425 489 22,700 1,800 Climbing FlightAware ADS-B
10:48AM 53.3451 -0.6123 109° East 429 494 23,600 1,680 Climbing FlightAware ADS-B
10:49AM 53.3254 -0.5192 109° East 431 496 24,500 1,500 Climbing FlightAware ADS-B
10:49AM 53.3030 -0.4110 109° East 439 505 25,300 1,320 Climbing FlightAware
10:49AM 53.2933 -0.3638 109° East 442 509 25,600 1,620 Climbing FlightAware ADS-B
10:50AM 53.2710 -0.2570 109° East 445 512 26,500 1,440 Climbing FlightAware ADS-B
10:50AM 53.2493 -0.1528 109° East 449 517 27,200 1,200 Climbing FlightAware ADS-B
10:51AM 53.2252 -0.0481 111° Southeast 454 522 27,800 1,140 Climbing FlightAware ADS-B
10:52AM 53.2024 0.0509 111° Southeast 458 527 28,400 1,140 Climbing FlightAware ADS-B
10:52AM 53.1783 0.1546 111° Southeast 463 533 29,000 900 Climbing FlightAware ADS-B
10:53AM 53.1533 0.2623 111° Southeast 470 541 29,400 780 Climbing FlightAware ADS-B
10:53AM 53.1270 0.3750 111° Southeast 476 548 29,900 1,140 Climbing FlightAware ADS-B
10:54AM 53.1027 0.4789 111° Southeast 475 547 30,600 1,200 Climbing FlightAware ADS-B
10:54AM 53.0736 0.6022 111° Southeast 477 549 31,300 1,140 Climbing FlightAware ADS-B
10:55AM 53.0502 0.7012 111° Southeast 476 548 31,900 1,200 Climbing FlightAware ADS-B
10:55AM 53.0252 0.8064 112° Southeast 474 545 32,500 840 Climbing FlightAware ADS-B
10:56AM 53.0001 0.9112 112° Southeast 478 550 32,800 540 Climbing FlightAware ADS-B
10:56AM 52.9840 0.9882 109° East 481 554 33,000 300 Climbing FlightAware ADS-B
10:56AM 52.9743 1.0475 105° East 484 557 33,000  Level FlightAware ADS-B
10:57AM 52.9583 1.1788 101° East 487 560 33,000  Level FlightAware ADS-B
10:58AM 52.9436 1.3033 101° East 487 560 33,000  Level FlightAware ADS-B
10:58AM 52.9300 1.4184 101° East 488 562 33,000  Level FlightAware ADS-B
10:59AM 52.9169 1.5292 101° East 489 563 33,000  Level FlightAware ADS-B
10:59AM 52.9004 1.6679 101° East 491 565 33,000  Level FlightAware ADS-B
11:00AM 52.8860 1.7863 101° East 491 565 33,000  Level FlightAware ADS-B
11:00AM 52.8722 1.9000 101° East 493 567 33,000  Level FlightAware ADS-B
11:01AM 52.8546 2.0430 101° East 492 566 33,000  Level FlightAware ADS-B
11:01AM 52.8398 2.1616 102° East 491 565 33,000  Level FlightAware ADS-B
11:02AM 52.8254 2.2765 102° East 492 566 33,000  Level FlightAware ADS-B
11:03AM 52.7940 2.5470 101° East 496 571 33,000  Level FlightAware
11:04AM 52.7770 2.6940 101° East 497 572 33,000  Level FlightAware
11:05AM 52.7600 2.8430 101° East 498 573 33,000  Level FlightAware
11:05AM 52.7400 3.0060 101° East 498 573 33,000  Level FlightAware
11:06AM 52.7220 3.1550 101° East 498 573 33,000  Level FlightAware
11:07AM 52.7030 3.3080 102° East 499 574 33,000  Level FlightAware
11:07AM 52.6830 3.4680 102° East 502 578 33,000  Level FlightAware
11:08AM 52.6640 3.6240 101° East 506 582 33,000  Level FlightAware
11:09AM 52.6430 3.7880 102° East 508 585 33,000  Level FlightAware
11:09AM 52.6230 3.9430 102° East 512 589 33,000  Level FlightAware
11:10AM 52.6000 4.1180 102° East 515 593 33,000  Level FlightAware
11:11AM 52.5800 4.2700 102° East 517 595 33,000  Level FlightAware
11:12AM 52.5600 4.4220 102° East 519 597 33,000  Level FlightAware
11:12AM 52.5370 4.5970 102° East 520 598 33,000  Level FlightAware
11:13AM 52.5160 4.7490 103° East 520 598 33,000  Level FlightAware
11:14AM 52.4950 4.9030 103° East 521 600 33,000  Level FlightAware
11:14AM 52.4700 5.0820 103° East 524 603 33,000  Level FlightAware
11:15AM 52.4490 5.2300 103° East 523 602 33,000  Level FlightAware
11:16AM 52.4280 5.3780 103° East 523 602 33,000  Level FlightAware
11:16AM 52.4030 5.5530 103° East 523 602 33,000  Level FlightAware
11:17AM 52.3810 5.7100 103° East 523 602 33,000  Level FlightAware
11:18AM 52.3560 5.8800 103° East 524 603 33,000  Level FlightAware
11:19AM 52.3320 6.0390 104° East 524 603 33,000  Level FlightAware
11:19AM 52.3100 6.1870 104° East 525 604 33,000  Level FlightAware
11:20AM 52.2840 6.3600 104° East 525 604 33,000  Level FlightAware
11:21AM 52.2600 6.5150 104° East 524 603 33,000  Level FlightAware
11:21AM 52.2360 6.6770 104° East 523 602 33,000  Level FlightAware
11:22AM 52.2110 6.8340 105° East 522 601 33,000  Level FlightAware
11:23AM 52.1870 6.9890 104° East 521 600 33,000  Level FlightAware
11:23AM 52.1600 7.1560 105° East 519 597 33,000  Level FlightAware
11:24AM 52.1340 7.3200 104° East 515 593 33,000  Level FlightAware
11:25AM 52.1090 7.4790 104° East 513 590 33,000  Level FlightAware
11:26AM 52.0850 7.6220 105° East 514 592 33,000  Level FlightAware
11:26AM 52.0580 7.7870 105° East 515 593 33,000  Level FlightAware
11:27AM 52.0300 7.9560 105° East 517 595 33,000  Level FlightAware
11:28AM 51.9890 8.2010 105° East 521 600 33,000  Level FlightAware
11:29AM 51.9650 8.3430 105° East 523 602 33,000  Level FlightAware
11:30AM 51.9320 8.5320 106° East 527 606 33,000  Level FlightAware
11:31AM 51.8820 8.8210 106° East 530 610 33,000  Level FlightAware
11:32AM 51.8490 9.0100 106° East 531 611 33,000  Level FlightAware
11:32AM 51.8230 9.1550 106° East 530 610 33,000  Level FlightAware
11:33AM 51.7960 9.3060 106° East 530 610 33,000  Level FlightAware
11:34AM 51.7660 9.4740 106° East 532 612 33,000  Level FlightAware
11:34AM 51.7370 9.6290 107° East 531 611 33,000  Level FlightAware
11:35AM 51.7060 9.7970 107° East 530 610 33,000  Level FlightAware
11:36AM 51.6770 9.9530 107° East 532 612 33,000  Level FlightAware
11:37AM 51.6460 10.1170 107° East 532 612 33,000  Level FlightAware
11:37AM 51.6170 10.2720 107° East 532 612 33,000  Level FlightAware
11:38AM 51.5870 10.4290 107° East 533 613 33,000  Level FlightAware
11:39AM 51.5550 10.5990 107° East 531 611 33,000  Level FlightAware
11:39AM 51.5260 10.7490 107° East 528 608 33,000  Level FlightAware
11:40AM 51.4940 10.9120 107° East 524 603 33,000  Level FlightAware
11:41AM 51.4650 11.0580 108° East 526 605 33,000  Level FlightAware
11:41AM 51.4300 11.2340 108° East 527 606 33,000  Level FlightAware
11:42AM 51.4020 11.3760 107° East 528 608 33,000  Level FlightAware
11:43AM 51.3640 11.5630 108° East 524 603 33,000  Level FlightAware
11:44AM 51.3330 11.7130 108° East 524 603 33,000  Level FlightAware
11:44AM 51.3040 11.8550 108° East 525 604 33,000  Level FlightAware
11:45AM 51.2710 12.0170 108° East 524 603 33,000  Level FlightAware
11:46AM 51.2390 12.1680 109° East 527 606 33,000  Level FlightAware
11:46AM 51.2060 12.3250 108° East 528 608 33,000  Level FlightAware
11:47AM 51.1760 12.4680 108° East 529 609 33,000  Level FlightAware
11:48AM 51.1450 12.6140 109° East 527 606 33,000  Level FlightAware
11:48AM 51.1080 12.7850 109° East 526 605 33,000  Level FlightAware
11:49AM 51.0770 12.9300 109° East 526 605 33,000  Level FlightAware
11:50AM 51.0400 13.0960 109° East 527 606 33,000  Level FlightAware
11:51AM 51.0090 13.2400 109° East 528 608 33,000  Level FlightAware
11:51AM 50.9750 13.3930 109° East 528 608 33,000  Level FlightAware
11:52AM 50.9380 13.5570 110° East 530 610 33,000  Level FlightAware
11:53AM 50.9060 13.7020 109° East 529 609 33,000  Level FlightAware
11:53AM 50.8660 13.8660 111° Southeast 529 609 33,000  Level FlightAware
11:54AM 50.8180 13.9990 120° Southeast 529 609 33,000  Level FlightAware
11:55AM 50.7690 14.1300 121° Southeast 528 608 33,000  Level FlightAware
11:55AM 50.7120 14.2810 121° Southeast 528 608 33,000  Level FlightAware
11:56AM 50.6630 14.4090 121° Southeast 529 609 33,000  Level FlightAware
11:57AM 50.6060 14.5600 121° Southeast 528 608 33,000  Level FlightAware
11:58AM 50.5550 14.6900 122° Southeast 528 608 33,000  Level FlightAware
11:58AM 50.5040 14.8220 121° Southeast 528 608 33,000  Level FlightAware
11:59AM 50.4480 14.9620 122° Southeast 530 610 33,000  Level FlightAware
12:00PM 50.3960 15.0950 121° Southeast 529 609 33,000  Level FlightAware
12:00PM 50.3420 15.2300 122° Southeast 528 608 33,000  Level FlightAware
12:01PM 50.2880 15.3650 122° Southeast 529 609 33,000  Level FlightAware
12:02PM 50.2330 15.5020 122° Southeast 532 612 33,000  Level FlightAware
12:02PM 50.1800 15.6320 122° Southeast 534 615 33,000  Level FlightAware
12:03PM 50.1270 15.7630 122° Southeast 534 615 33,000  Level FlightAware
12:04PM 50.0700 15.9020 123° Southeast 533 613 33,000 180 Level FlightAware
12:05PM 50.0110 16.0460 122° Southeast 534 615 33,300 840 Climbing FlightAware
12:05PM 49.9580 16.1760 122° Southeast 532 612 34,200 1,260 Climbing FlightAware
12:06PM 49.8940 16.3290 123° Southeast 528 608 35,100 1,080 Climbing FlightAware
12:07PM 49.8420 16.4540 123° Southeast 520 598 35,800 1,020 Climbing FlightAware
12:07PM 49.7920 16.5730 123° Southeast 513 590 36,500 840 Climbing FlightAware
12:08PM 49.7330 16.7130 123° Southeast 512 589 37,000 300 Climbing FlightAware
12:09PM 49.6810 16.8360 123° Southeast 518 596 37,000  Level FlightAware
12:09PM 49.6200 16.9780 124° Southeast 515 593 37,000  Level FlightAware
12:10PM 49.5680 17.1000 123° Southeast 516 594 37,000  Level FlightAware
12:11PM 49.5160 17.2230 123° Southeast 517 595 37,000  Level FlightAware
12:12PM 49.4570 17.3580 124° Southeast 519 597 37,000  Level FlightAware
12:12PM 49.4040 17.4810 123° Southeast 523 602 37,000  Level FlightAware
12:13PM 49.3640 17.5730 124° Southeast 524 603 37,000  Level FlightAware
12:13PM 49.3100 17.6960 124° Southeast 522 601 37,000  Level FlightAware
12:14PM 49.2600 17.8100 124° Southeast 521 600 37,000  Level FlightAware
12:15PM 49.1960 17.9540 124° Southeast 523 602 37,000  Level FlightAware
12:15PM 49.1470 18.0830 120° Southeast 524 603 37,000  Level FlightAware
12:16PM 49.0930 18.2320 119° Southeast 525 604 37,000  Level FlightAware
12:17PM 49.0460 18.3600 119° Southeast 527 606 37,000  Level FlightAware
12:18PM 49.0010 18.4820 119° Southeast 528 608 37,000  Level FlightAware
12:18PM 48.9450 18.6340 119° Southeast 526 605 37,000  Level FlightAware
12:19PM 48.8990 18.7600 119° Southeast 523 602 37,000  Level FlightAware
12:20PM 48.8450 18.9030 120° Southeast 523 602 37,000  Level FlightAware
12:20PM 48.7980 19.0300 119° Southeast 521 600 37,000  Level FlightAware
12:21PM 48.7440 19.1740 120° Southeast 522 601 37,000  Level FlightAware
12:22PM 48.6960 19.2990 120° Southeast 517 595 37,000  Level FlightAware
12:23PM 48.6410 19.4440 120° Southeast 514 592 37,000  Level FlightAware
12:23PM 48.5950 19.5660 120° Southeast 511 588 37,000  Level FlightAware
12:24PM 48.5480 19.6870 120° Southeast 511 588 37,000  Level FlightAware
12:25PM 48.4960 19.8210 120° Southeast 509 586 37,000  Level FlightAware
12:25PM 48.4460 19.9510 120° Southeast 508 585 37,000  Level FlightAware
12:26PM 48.4000 20.0690 120° Southeast 505 581 37,000  Level FlightAware
12:27PM 48.3480 20.2030 120° Southeast 505 581 37,000  Level FlightAware
12:27PM 48.2980 20.3300 121° Southeast 503 579 37,000  Level FlightAware
12:28PM 48.2450 20.4630 121° Southeast 507 583 37,000  Level FlightAware
12:29PM 48.1980 20.5830 120° Southeast 512 589 37,000  Level FlightAware
12:29PM 48.1480 20.7070 121° Southeast 514 592 37,000  Level FlightAware
12:30PM 48.0950 20.8400 121° Southeast 515 593 37,000  Level FlightAware
12:31PM 48.0420 20.9700 121° Southeast 514 592 37,000  Level FlightAware
12:32PM 47.9940 21.0900 121° Southeast 512 589 37,000  Level FlightAware
12:32PM 47.9470 21.2070 121° Southeast 510 587 37,000  Level FlightAware
12:33PM 47.8890 21.3490 121° Southeast 513 590 37,000  Level FlightAware
12:34PM 47.8340 21.4830 121° Southeast 512 589 37,000  Level FlightAware
12:34PM 47.7860 21.5990 122° Southeast 509 586 37,000  Level FlightAware
12:35PM 47.7390 21.7120 122° Southeast 510 587 37,000  Level FlightAware
12:36PM 47.6810 21.8590 120° Southeast 508 585 37,000  Level FlightAware
12:36PM 47.6360 21.9760 120° Southeast 506 582 37,000  Level FlightAware
12:37PM 47.5840 22.1130 119° Southeast 511 588 37,000  Level FlightAware
12:38PM 47.5400 22.2270 120° Southeast 506 582 37,000  Level FlightAware
12:39PM 47.4930 22.3470 120° Southeast 505 581 37,000  Level FlightAware
12:39PM 47.4460 22.4690 120° Southeast 512 589 37,000  Level FlightAware
12:40PM 47.3930 22.6040 120° Southeast 510 587 37,000  Level FlightAware
12:41PM 47.3310 22.7590 121° Southeast 511 588 37,000  Level FlightAware
12:41PM 47.2850 22.8780 120° Southeast 512 589 37,000  Level FlightAware
12:42PM 47.2260 23.0240 121° Southeast 510 587 37,000  Level FlightAware
12:43PM 47.1770 23.1470 120° Southeast 508 585 37,000  Level FlightAware
12:44PM 47.1220 23.2840 121° Southeast 511 588 37,000  Level FlightAware
12:44PM 47.0730 23.4070 120° Southeast 510 587 37,000  Level FlightAware
12:45PM 47.0390 23.4890 121° Southeast 510 587 37,000  Level FlightAware
12:46PM 46.9870 23.6170 121° Southeast 509 586 37,000  Level FlightAware
12:46PM 46.9340 23.7470 121° Southeast 509 586 37,000  Level FlightAware
12:47PM 46.8790 23.8800 121° Southeast 507 583 37,000  Level FlightAware
12:48PM 46.8390 23.9790 121° Southeast 507 583 37,000  Level FlightAware
12:48PM 46.7800 24.1200 121° Southeast 507 583 37,000  Level FlightAware
12:49PM 46.7300 24.2410 121° Southeast 507 583 37,000  Level FlightAware
12:50PM 46.6810 24.3590 121° Southeast 508 585 37,000  Level FlightAware
12:51PM 46.6280 24.4840 122° Southeast 509 586 37,000  Level FlightAware
12:51PM 46.5830 24.5910 121° Southeast 507 583 37,000  Level FlightAware
12:52PM 46.5250 24.7290 121° Southeast 506 582 37,000  Level FlightAware
12:53PM 46.4800 24.8330 122° Southeast 504 580 37,000  Level FlightAware
12:53PM 46.4280 24.9560 121° Southeast 503 579 37,000  Level FlightAware
12:54PM 46.3740 25.0820 122° Southeast 501 577 37,000  Level FlightAware
12:55PM 46.3070 25.2360 122° Southeast 500 575 37,000  Level FlightAware
12:55PM 46.2670 25.3290 122° Southeast 499 574 37,000  Level FlightAware
12:56PM 46.1990 25.4850 122° Southeast 499 574 37,000  Level FlightAware
12:57PM 46.1610 25.5730 122° Southeast 500 575 37,000  Level FlightAware
12:58PM 46.0930 25.7260 123° Southeast 502 578 37,000  Level FlightAware
12:58PM 46.0430 25.8410 122° Southeast 503 579 37,000  Level FlightAware
12:59PM 45.9990 25.9410 122° Southeast 504 580 37,000  Level FlightAware
01:00PM 45.9490 26.0530 123° Southeast 507 583 37,000  Level FlightAware
01:01PM 45.8930 26.1790 123° Southeast 506 582 37,000  Level FlightAware
01:01PM 45.8370 26.3030 123° Southeast 505 581 37,000  Level FlightAware
01:02PM 45.7790 26.4320 123° Southeast 506 582 37,000  Level FlightAware
01:03PM 45.7290 26.5430 123° Southeast 507 583 37,000  Level FlightAware
01:03PM 45.6760 26.6590 123° Southeast 506 582 37,000  Level FlightAware
01:04PM 45.6200 26.7820 123° Southeast 505 581 37,000  Level FlightAware
01:05PM 45.5660 26.9010 123° Southeast 504 580 37,000  Level FlightAware
01:05PM 45.5150 27.0100 124° Southeast 505 581 37,000  Level FlightAware
01:06PM 45.4620 27.1260 123° Southeast 506 582 37,000  Level FlightAware
01:07PM 45.4130 27.2320 123° Southeast 507 583 37,000  Level FlightAware
01:08PM 45.3500 27.3660 124° Southeast 508 585 37,000  Level FlightAware
01:08PM 45.3020 27.4690 124° Southeast 510 587 37,000  Level FlightAware
01:09PM 45.2440 27.6060 121° Southeast 508 585 37,000  Level FlightAware
01:10PM 45.2060 27.7180 116° Southeast 510 587 37,000  Level FlightAware
01:10PM 45.1580 27.8610 115° Southeast 512 589 37,000  Level FlightAware
01:11PM 45.1200 27.9710 116° Southeast 512 589 37,000  Level FlightAware
01:12PM 45.0550 28.1630 116° Southeast 509 586 37,000  Level FlightAware
01:13PM 45.0080 28.2970 116° Southeast 506 582 37,000  Level FlightAware
01:14PM 44.9570 28.4430 116° Southeast 505 581 37,000  Level FlightAware
01:14PM 44.9260 28.5330 116° Southeast 504 580 37,000  Level FlightAware
01:15PM 44.8750 28.6790 116° Southeast 501 577 37,000  Level FlightAware
01:16PM 44.8290 28.8110 116° Southeast 503 579 37,000  Level FlightAware
01:16PM 44.7910 28.9160 117° Southeast 504 580 37,000  Level FlightAware
01:17PM 44.7410 29.0580 116° Southeast 501 577 37,000  Level FlightAware
01:18PM 44.7010 29.1700 117° Southeast 502 578 37,000  Level FlightAware
01:18PM 44.6580 29.2920 116° Southeast 500 575 37,000  Level FlightAware
01:19PM 44.6220 29.3900 117° Southeast 500 575 37,000  Level FlightAware
01:20PM 44.5680 29.5410 117° Southeast 500 575 37,000  Level FlightAware
01:21PM 44.5210 29.6700 117° Southeast 497 572 37,000  Level FlightAware
01:21PM 44.4800 29.7820 117° Southeast 496 571 37,000  Level FlightAware
01:22PM 44.4420 29.8860 117° Southeast 495 570 37,000  Level FlightAware
01:23PM 44.3980 30.0060 117° Southeast 494 568 37,000  Level FlightAware
01:23PM 44.3480 30.1400 118° Southeast 496 571 37,000  Level FlightAware
01:24PM 44.3050 30.2560 117° Southeast 496 571 37,000  Level FlightAware
01:25PM 44.2600 30.3790 117° Southeast 495 570 37,000  Level FlightAware
01:26PM 44.2230 30.4770 118° Southeast 496 571 37,000  Level FlightAware
01:26PM 44.1690 30.6210 118° Southeast 495 570 37,000  Level FlightAware
01:27PM 44.1230 30.7430 118° Southeast 494 568 37,000  Level FlightAware
01:28PM 44.0760 30.8660 118° Southeast 497 572 37,000  Level FlightAware
01:28PM 44.0320 30.9830 118° Southeast 497 572 37,000  Level FlightAware
01:29PM 43.9900 31.0920 118° Southeast 496 571 37,000  Level FlightAware
01:30PM 43.9410 31.2200 118° Southeast 494 568 37,000  Level FlightAware
01:30PM 43.8980 31.3320 118° Southeast 493 567 37,000  Level FlightAware
01:31PM 43.8490 31.4570 118° Southeast 492 566 37,000  Level FlightAware
01:32PM 43.8060 31.5690 118° Southeast 492 566 37,000  Level FlightAware
01:32PM 43.7630 31.6790 118° Southeast 491 565 37,000  Level FlightAware
01:33PM 43.7190 31.7920 118° Southeast 491 565 37,000  Level FlightAware
01:34PM 43.6710 31.9120 119° Southeast 489 563 37,000  Level FlightAware
01:35PM 43.6230 32.0360 118° Southeast 487 560 37,000  Level FlightAware
01:35PM 43.5790 32.1460 119° Southeast 487 560 37,000  Level FlightAware
01:36PM 43.5300 32.2690 119° Southeast 487 560 37,000  Level FlightAware
01:37PM 43.4860 32.3770 119° Southeast 488 562 37,000  Level FlightAware
01:37PM 43.4450 32.4820 118° Southeast 489 563 37,000  Level FlightAware
01:38PM 43.3940 32.6060 119° Southeast 490 564 37,000  Level FlightAware
01:39PM 43.3510 32.7140 119° Southeast 492 566 37,000  Level FlightAware
01:40PM 43.3000 32.8400 119° Southeast 493 567 37,000  Level FlightAware
01:40PM 43.2550 32.9500 119° Southeast 493 567 37,000  Level FlightAware
01:41PM 43.2110 33.0570 119° Southeast 492 566 37,000  Level FlightAware
01:42PM 43.1600 33.1810 119° Southeast 492 566 37,000  Level FlightAware
01:42PM 43.1160 33.2880 119° Southeast 493 567 37,000  Level FlightAware
01:43PM 43.0650 33.4100 120° Southeast 491 565 37,000  Level FlightAware
01:44PM 43.0200 33.5190 119° Southeast 489 563 37,000  Level FlightAware
01:44PM 42.9750 33.6260 120° Southeast 489 563 37,000  Level FlightAware
01:45PM 42.9260 33.7430 120° Southeast 491 565 37,000  Level FlightAware
01:46PM 42.8850 33.8420 119° Southeast 492 566 37,000  Level FlightAware
01:46PM 42.8330 33.9630 120° Southeast 492 566 37,000  Level FlightAware
01:47PM 42.7790 34.0750 123° Southeast 490 564 37,000  Level FlightAware
01:48PM 42.7030 34.1900 132° Southeast 485 558 37,000  Level FlightAware
01:49PM 42.6090 34.3150 136° Southeast 485 558 37,000  Level FlightAware
01:50PM 42.5470 34.3990 135° Southeast 485 558 37,000  Level FlightAware
01:51PM 42.4930 34.4720 135° Southeast 485 558 37,000  Level FlightAware
01:52PM 42.4390 34.5450 135° Southeast 485 558 37,000  Level FlightAware
01:52PM 42.3850 34.6180 135° Southeast 485 558 37,000  Level FlightAware
01:53PM 42.3170 34.7100 135° Southeast 485 558 37,000  Level FlightAware
01:54PM 42.2630 34.7820 135° Southeast 485 558 37,000  Level FlightAware
01:55PM 42.2090 34.8550 135° Southeast 485 558 37,000  Level FlightAware
01:55PM 42.1550 34.9280 135° Southeast 485 558 37,000  Level FlightAware
01:56PM 42.1020 35.0010 134° Southeast 485 558 37,000  Level FlightAware
01:57PM 42.0340 35.0920 135° Southeast 485 558 37,000  Level FlightAware
01:57PM 41.9800 35.1640 135° Southeast 485 558 37,000  Level FlightAware
01:58PM 41.9260 35.2370 135° Southeast 485 558 37,000  Level FlightAware
01:59PM 41.8720 35.3090 135° Southeast 485 558 37,000  Level FlightAware
01:59PM 41.8180 35.3820 135° Southeast 485 558 37,000  Level FlightAware
02:02PM 41.6443 35.6062 136° Southeast  Level Estimated
02:03PM 41.5587 35.7160 136° Southeast  Level Estimated
02:04PM 41.4729 35.8255 136° Southeast  Level Estimated
02:05PM 41.3871 35.9347 136° Southeast  Level Estimated
02:06PM 41.3012 36.0437 136° Southeast  Level Estimated
02:07PM 41.2152 36.1524 136° Southeast  Level Estimated
02:08PM 41.1291 36.2607 137° Southeast  Level Estimated
02:09PM 41.0429 36.3688 137° Southeast  Level Estimated
02:10PM 40.9565 36.4766 137° Southeast  Level Estimated
02:11PM 40.8701 36.5841 137° Southeast  Level Estimated
02:12PM 40.7836 36.6914 137° Southeast  Level Estimated
02:13PM 40.6970 36.7983 137° Southeast  Level Estimated
02:14PM 40.6102 36.9050 137° Southeast  Level Estimated
02:15PM 40.5234 37.0114 137° Southeast  Level Estimated
02:16PM 40.4365 37.1175 137° Southeast  Level Estimated
02:17PM 40.3495 37.2234 137° Southeast  Level Estimated
02:18PM 40.2624 37.3290 137° Southeast  Level Estimated
02:19PM 40.1752 37.4343 137° Southeast  Level Estimated
02:20PM 40.0879 37.5393 137° Southeast  Level Estimated
02:21PM 40.0005 37.6441 137° Southeast  Level Estimated
02:22PM 39.9130 37.7486 137° Southeast  Level Estimated
02:23PM 39.8254 37.8529 138° Southeast  Level Estimated
02:24PM 39.7377 37.9568 138° Southeast  Level Estimated
02:25PM 39.6500 38.0606 138° Southeast  Level Estimated
02:26PM 39.5621 38.1640 138° Southeast  Level Estimated
02:27PM 39.4742 38.2672 138° Southeast  Level Estimated
02:28PM 39.3861 38.3701 138° Southeast  Level Estimated
02:29PM 39.2980 38.4728 138° Southeast  Level Estimated
02:30PM 39.2098 38.5752 138° Southeast  Level Estimated
02:31PM 39.1214 38.6773 138° Southeast  Level Estimated
02:32PM 39.0331 38.7792 138° Southeast  Level Estimated
02:33PM 38.9446 38.8809 138° Southeast  Level Estimated
02:33PM 39.0670 40.6240 138° Southeast 486 559 37,000  Level FlightAware
02:34PM 38.8560 38.9822 138° Southeast  Level Estimated
02:34PM 39.0200 40.7030 127° Southeast 485 558 37,000  Level FlightAware
02:34PM 38.9530 40.8130 128° Southeast 484 557 37,000  Level FlightAware
02:35PM 38.9120 40.8830 127° Southeast 484 557 37,000  Level FlightAware
02:36PM 38.8320 41.0160 128° Southeast 487 560 37,000  Level FlightAware
02:37PM 38.7860 41.0950 127° Southeast 487 560 37,000  Level FlightAware
02:37PM 38.7400 41.1730 127° Southeast 487 560 37,000  Level FlightAware
02:38PM 38.6930 41.2520 127° Southeast 487 560 37,000  Level FlightAware
02:39PM 38.6360 41.3490 127° Southeast 487 560 37,000  Level FlightAware
02:39PM 38.5900 41.4280 127° Southeast 487 560 37,000  Level FlightAware
02:40PM 38.4750 41.6110 129° Southeast 488 562 37,000  Level FlightAware
02:41PM 38.4020 41.7380 126° Southeast 485 558 37,000  Level FlightAware
02:42PM 38.3590 41.8120 127° Southeast 484 557 37,000  Level FlightAware
02:42PM 38.3260 41.8690 126° Southeast 483 556 37,000  Level FlightAware
02:43PM 38.2580 41.9850 127° Southeast 481 554 37,000  Level FlightAware
02:44PM 38.1860 42.1070 127° Southeast 481 554 37,000  Level FlightAware
02:44PM 38.1340 42.1970 126° Southeast 479 551 37,000  Level FlightAware
02:45PM 38.0740 42.2970 127° Southeast 478 550 37,000  Level FlightAware
02:46PM 38.0220 42.3850 127° Southeast 478 550 37,000  Level FlightAware
02:46PM 37.9690 42.4760 126° Southeast 476 548 37,000  Level FlightAware
02:47PM 37.9110 42.5730 127° Southeast 475 547 37,000  Level FlightAware
02:48PM 37.8520 42.6630 130° Southeast 468 539 37,000  Level FlightAware
02:49PM 37.7880 42.7370 138° Southeast 460 529 37,000  Level FlightAware
02:49PM 37.7180 42.8150 139° Southeast 453 521 37,000  Level FlightAware
02:50PM 37.6570 42.8820 139° Southeast 437 503 37,000  Level FlightAware
02:51PM 37.5960 42.9490 139° Southeast 438 504 37,000  Level FlightAware
02:51PM 37.5250 43.0270 139° Southeast 440 506 37,000  Level FlightAware
02:52PM 37.4620 43.0950 139° Southeast 444 511 37,000  Level FlightAware
02:53PM 37.3950 43.1670 140° Southeast 439 505 37,000  Level FlightAware
02:53PM 37.3280 43.2250 145° Southeast 427 491 37,000  Level FlightAware
02:54PM 37.2470 43.2740 154° Southeast 420 483 37,000  Level FlightAware
02:55PM 37.1790 43.3130 155° Southeast 418 481 37,000  Level FlightAware
02:56PM 37.1070 43.3540 156° South 417 480 37,000  Level FlightAware
02:56PM 37.0270 43.3990 156° South 429 494 37,000  Level FlightAware
02:57PM 36.9540 43.4400 156° South 431 496 37,000  Level FlightAware
02:58PM 36.8710 43.4860 156° South 432 497 37,000  Level FlightAware
02:58PM 36.7970 43.5280 156° South 432 497 37,000  Level FlightAware
02:59PM 36.7250 43.5680 156° South 434 499 37,000  Level FlightAware
03:00PM 36.6410 43.6110 158° South 436 502 37,000  Level FlightAware
03:00PM 36.5670 43.6490 158° South 437 503 37,000  Level FlightAware
03:01PM 36.4930 43.6880 157° South 436 502 37,000  Level FlightAware
03:02PM 36.4060 43.7330 157° South 435 501 37,000  Level FlightAware
03:03PM 36.3310 43.7720 157° South 436 502 37,000  Level FlightAware
03:03PM 36.2510 43.8140 157° South 436 502 37,000  Level FlightAware
03:04PM 36.1760 43.8530 157° South 437 503 37,000  Level FlightAware
03:05PM 36.1000 43.8930 157° South 437 503 37,000  Level FlightAware
03:05PM 36.0160 43.9370 157° South 435 501 37,000  Level FlightAware
03:06PM 35.9410 43.9760 157° South 434 499 37,000  Level FlightAware
03:07PM 35.8580 44.0190 157° South 434 499 37,000  Level FlightAware
03:07PM 35.7850 44.0570 157° South 432 497 37,000  Level FlightAware
03:08PM 35.7110 44.0960 157° South 431 496 37,000  Level FlightAware
03:09PM 35.6270 44.1390 157° South 429 494 37,000  Level FlightAware
03:10PM 35.5530 44.1770 157° South 428 493 37,000  Level FlightAware
03:10PM 35.4740 44.2190 157° South 429 494 37,000  Level FlightAware
03:11PM 35.4000 44.2570 157° South 432 497 37,000  Level FlightAware
03:12PM 35.3140 44.3010 157° South 437 503 37,000  Level FlightAware
03:12PM 35.2400 44.3390 157° South 447 514 37,000  Level FlightAware
03:13PM 35.1690 44.3880 151° Southeast 455 524 37,000  Level FlightAware
03:14PM 35.0850 44.4470 150° Southeast 457 526 37,000  Level FlightAware
03:14PM 35.0120 44.4990 150° Southeast 455 524 37,000  Level FlightAware
03:15PM 34.9320 44.5550 150° Southeast 450 518 37,000  Level FlightAware
03:16PM 34.8570 44.6070 150° Southeast 450 518 37,000  Level FlightAware
03:17PM 34.7830 44.6590 150° Southeast 449 517 37,000  Level FlightAware
03:17PM 34.7050 44.7130 150° Southeast 448 516 37,000  Level FlightAware
03:18PM 34.6310 44.7650 150° Southeast 449 517 37,000  Level FlightAware
03:19PM 34.5490 44.8220 150° Southeast 449 517 37,000  Level FlightAware
03:19PM 34.4700 44.8770 150° Southeast 448 516 37,000  Level FlightAware
03:20PM 34.3960 44.9280 150° Southeast 451 519 37,000  Level FlightAware
03:21PM 34.3240 44.9780 150° Southeast 451 519 37,000  Level FlightAware
03:22PM 34.2430 45.0340 150° Southeast 454 522 37,000  Level FlightAware
03:22PM 34.1680 45.0860 150° Southeast 456 525 37,000  Level FlightAware
03:23PM 34.1090 45.1260 151° Southeast 455 524 37,000  Level FlightAware
03:24PM 34.0200 45.1870 150° Southeast 453 521 37,000  Level FlightAware
03:24PM 33.9600 45.2290 150° Southeast 453 521 37,000  Level FlightAware
03:25PM 33.8620 45.2960 150° Southeast 454 522 37,000  Level FlightAware
03:26PM 33.7940 45.3430 150° Southeast 454 522 37,000  Level FlightAware
03:27PM 33.6910 45.4120 151° Southeast 452 520 37,000  Level FlightAware
03:27PM 33.6090 45.4680 150° Southeast 450 518 37,000  Level FlightAware
03:28PM 33.5300 45.5220 150° Southeast 451 519 37,000  Level FlightAware
03:29PM 33.4620 45.5670 151° Southeast 452 520 37,000  Level FlightAware
03:29PM 33.3860 45.6190 150° Southeast 454 522 37,000  Level FlightAware
03:30PM 33.3130 45.6690 150° Southeast 454 522 37,000  Level FlightAware
03:31PM 33.2510 45.7120 150° Southeast 454 522 37,000  Level FlightAware
03:31PM 33.1890 45.7550 150° Southeast 454 522 37,000  Level FlightAware
03:32PM 33.1270 45.7970 150° Southeast 454 522 37,000  Level FlightAware
03:33PM 32.9970 45.8800 152° Southeast 459 528 37,000  Level FlightAware
03:34PM 32.9240 45.9300 150° Southeast 459 528 37,000  Level FlightAware
03:34PM 32.8610 45.9730 150° Southeast 459 528 37,000  Level FlightAware
03:35PM 32.7990 46.0160 150° Southeast 459 528 37,000  Level FlightAware
03:36PM 32.7360 46.0590 150° Southeast 459 528 37,000  Level FlightAware
03:36PM 32.6580 46.1130 150° Southeast 459 528 37,000  Level FlightAware
03:37PM 32.5950 46.1560 150° Southeast 459 528 37,000  Level FlightAware
03:38PM 32.5330 46.1990 150° Southeast 459 528 37,000  Level FlightAware
03:38PM 32.4700 46.2410 151° Southeast 459 528 37,000  Level FlightAware
03:39PM 32.4080 46.2840 150° Southeast 459 528 37,000  Level FlightAware
03:40PM 32.3300 46.3380 150° Southeast 459 528 37,000  Level FlightAware
03:41PM 32.2670 46.3800 151° Southeast 459 528 37,000  Level FlightAware
03:41PM 32.2050 46.4230 150° Southeast 459 528 37,000  Level FlightAware
03:42PM 32.1420 46.4660 150° Southeast 459 528 37,000  Level FlightAware
03:43PM 32.0800 46.5080 150° Southeast 459 528 37,000  Level FlightAware
03:45PM 31.8970 46.6550 146° Southeast  Level Estimated
03:46PM 31.7989 46.7335 146° Southeast  Level Estimated
03:47PM 31.7007 46.8118 146° Southeast  Level Estimated
03:48PM 31.6025 46.8900 146° Southeast  Level Estimated
03:48PM 31.3340 46.9790 146° Southeast 492 566 37,000  Level FlightAware
03:49PM 31.2500 47.0600 140° Southeast 493 567 37,000  Level FlightAware
03:49PM 31.1790 47.1410 136° Southeast 500 575 37,000  Level FlightAware
03:50PM 31.1190 47.2060 137° Southeast 500 575 37,000  Level FlightAware
03:51PM 31.0130 47.3190 138° Southeast 499 574 37,000  Level FlightAware
03:52PM 30.9210 47.4150 138° Southeast 504 580 37,000  Level FlightAware
03:52PM 30.8580 47.4800 138° Southeast 510 587 37,000  Level FlightAware
03:53PM 30.8060 47.5350 138° Southeast 510 587 37,000  Level FlightAware
03:54PM 30.7370 47.6060 139° Southeast 511 588 37,000  Level FlightAware
03:55PM 30.6660 47.6810 138° Southeast 512 589 37,000  Level FlightAware
03:55PM 30.5700 47.7810 138° Southeast 514 592 37,000  Level FlightAware
03:56PM 30.5040 47.8490 138° Southeast 514 592 37,000  Level FlightAware
03:57PM 30.4070 47.9490 138° Southeast 514 592 37,000  Level FlightAware
03:58PM 30.3030 48.0560 138° Southeast 513 590 37,000  Level FlightAware
03:58PM 30.2400 48.1120 142° Southeast 508 585 37,000  Level FlightAware
04:00PM 30.0940 48.2060 151° Southeast 505 581 37,000  Level FlightAware
04:00PM 30.0120 48.2630 149° Southeast 505 581 37,000  Level FlightAware
04:01PM 29.9030 48.3360 150° Southeast 506 582 37,000  Level FlightAware
04:02PM 29.8100 48.3990 150° Southeast 508 585 37,000  Level FlightAware
04:02PM 29.7420 48.4440 150° Southeast 508 585 37,000  Level FlightAware
04:03PM 29.5740 48.5570 150° Southeast 510 587 37,000  Level FlightAware
04:04PM 29.4960 48.6090 150° Southeast 512 589 37,000  Level FlightAware
04:05PM 29.4090 48.6660 150° Southeast 512 589 37,000  Level FlightAware
04:05PM 29.3110 48.7310 150° Southeast 512 589 37,000  Level FlightAware
04:06PM 29.2450 48.7750 150° Southeast 512 589 37,000  Level FlightAware
04:07PM 29.1420 48.8430 150° Southeast 513 590 37,000  Level FlightAware
04:07PM 29.0710 48.8900 150° Southeast 511 588 37,000  Level FlightAware
04:08PM 28.9630 48.9610 150° Southeast 512 589 37,000  Level FlightAware
04:09PM 28.8980 49.0040 150° Southeast 513 590 37,000  Level FlightAware
04:10PM 28.8170 49.0570 150° Southeast 513 590 37,000  Level FlightAware
04:10PM 28.7470 49.1030 150° Southeast 513 590 37,000  Level FlightAware
04:11PM 28.6660 49.1560 150° Southeast 512 589 37,000  Level FlightAware
04:12PM 28.5610 49.2240 150° Southeast 511 588 37,000  Level FlightAware
04:12PM 28.4850 49.2740 150° Southeast 510 587 37,000  Level FlightAware
04:13PM 28.3920 49.3340 150° Southeast 510 587 37,000  Level FlightAware
04:14PM 28.3230 49.3800 150° Southeast 510 587 37,000  Level FlightAware
04:15PM 28.2090 49.4530 151° Southeast 512 589 37,000  Level FlightAware
04:16PM 28.0970 49.5270 150° Southeast 515 593 37,000  Level FlightAware
04:16PM 27.9940 49.6090 145° Southeast 518 596 37,000  Level FlightAware
04:17PM 27.9190 49.6710 144° Southeast 517 595 37,000  Level FlightAware
04:18PM 27.8290 49.7440 144° Southeast 517 595 37,000  Level FlightAware
04:19PM 27.7430 49.8140 144° Southeast 518 596 37,000  Level FlightAware
04:20PM 27.6580 49.8840 144° Southeast 518 596 37,000  Level FlightAware
04:20PM 27.5920 49.9380 144° Southeast 518 596 37,000  Level FlightAware
04:21PM 27.5260 49.9920 144° Southeast 518 596 37,000  Level FlightAware
04:22PM 27.4600 50.0460 144° Southeast 518 596 37,000  Level FlightAware
04:22PM 27.3940 50.1000 144° Southeast 518 596 37,000  Level FlightAware
04:23PM 27.3110 50.1680 144° Southeast 518 596 37,000  Level FlightAware
04:24PM 27.2450 50.2210 144° Southeast 518 596 37,000  Level FlightAware
04:24PM 27.1800 50.2750 144° Southeast 518 596 37,000  Level FlightAware
04:25PM 27.1140 50.3290 144° Southeast 518 596 37,000  Level FlightAware
04:26PM 27.0480 50.3830 144° Southeast 518 596 37,000  Level FlightAware
04:27PM 26.9650 50.4500 144° Southeast 518 596 37,000  Level FlightAware
04:27PM 26.8990 50.5040 144° Southeast 518 596 37,000 -2,040 Level FlightAware
04:28PM 26.6240 50.6650 152° Southeast 33,000 -3,000 Descending FlightAware
04:29PM 26.5270 50.7230 152° Southeast 487 560 32,800 -960 Descending FlightAware
04:29PM 26.4630 50.7930 136° Southeast 511 588 31,700 -1,620 Descending FlightAware
04:30PM 26.4150 50.8850 120° Southeast 494 568 30,700 -1,440 Descending FlightAware
04:31PM 26.3630 50.9830 121° Southeast 481 554 29,700 -1,500 Descending FlightAware
04:31PM 26.3180 51.0700 120° Southeast 465 535 28,600 -1,560 Descending FlightAware
04:32PM 26.2670 51.1580 123° Southeast 444 511 27,500 -1,680 Descending FlightAware
04:33PM 26.2030 51.2170 140° Southeast 434 499 26,300 -1,800 Descending FlightAware
04:34PM 26.1340 51.2770 142° Southeast 428 493 25,000 -1,800 Descending FlightAware
04:34PM 26.0710 51.3320 142° Southeast 420 483 23,800 -1,680 Descending FlightAware
04:35PM 26.0090 51.3830 144° Southeast 407 468 22,800 -2,100 Descending FlightAware
04:36PM 25.9420 51.4390 143° Southeast 401 461 20,900 -2,400 Descending FlightAware
04:36PM 25.8820 51.4880 144° Southeast 379 436 19,400 -2,400 Descending FlightAware
04:37PM 25.8200 51.5410 142° Southeast 362 417 17,500 -2,640 Descending FlightAware
04:38PM 25.7670 51.5840 144° Southeast 350 403 15,700 -2,580 Descending FlightAware
04:38PM 25.7150 51.6270 143° Southeast 345 397 14,100 -1,560 Descending FlightAware
04:39PM 25.6580 51.6750 143° Southeast 328 377 13,500 -900 Descending FlightAware
04:40PM 25.6120 51.7130 143° Southeast 318 366 12,900 -1,200 Descending FlightAware
04:41PM 25.5620 51.7540 144° Southeast 310 357 11,900 -1,380 Descending FlightAware
04:41PM 25.5110 51.7970 143° Southeast 305 351 11,000 -1,140 Descending FlightAware
04:42PM 25.4800 51.8180 149° Southeast 289 333 10,600 -780 Descending FlightAware
04:42PM 25.4600 51.8210 172° South 276 318 10,500 -900 Descending FlightAware
04:43PM 25.4030 51.8210 180° South 261 300 9,700 -1,320 Descending FlightAware
04:43PM 25.3710 51.8210 180° South 257 296 9,000 -1,680 Descending FlightAware
04:43PM 25.3540 51.8200 183° South 261 300 8,600 -1,680 Descending FlightAware
04:44PM 25.3230 51.8200 180° South 258 297 7,900 -1,500 Descending FlightAware
04:44PM 25.3050 51.8190 183° South 256 295 7,600 -1,080 Descending FlightAware
04:45PM 25.2710 51.8190 180° South 255 293 7,100 -1,140 Descending FlightAware
04:45PM 25.2340 51.8180 181° South 246 283 6,500 -1,200 Descending FlightAware
04:45PM 25.2040 51.8180 180° South 244 281 6,000 -1,140 Descending FlightAware
04:46PM 25.1700 51.8170 182° South 240 276 5,500 -1,020 Descending FlightAware
04:46PM 25.1400 51.8160 182° South 244 281 5,100 -900 Descending FlightAware
04:47PM 25.1130 51.8150 182° South 242 278 4,700 -720 Descending FlightAware
04:47PM 25.0880 51.8070 196° South 241 277 4,500 -300 Descending FlightAware
04:48PM 25.0640 51.8060 182° South 241 277 4,500 -600 Level FlightAware
04:49PM 25.0380 51.7300 249° West 187 215 3,600 -960 Descending FlightAware
04:49PM 25.0460 51.6880 282° West 192 221 2,800 -600 Descending FlightAware
04:50PM 25.0610 51.6610 302° West 192 221 2,800 -360 Level FlightAware
04:51PM 25.1140 51.6300 332° Northwest 191 220 2,200 -480 Descending FlightAware
04:52PM 25.1370 51.6200 339° North 162 186 2,100 -480 Descending FlightAware
04:52PM 25.1570 51.6110 338° Northwest 155 178 1,800 -360 Descending FlightAware
04:52PM 25.1720 51.6040 337° Northwest 155 178 1,800 -600 Level FlightAware
04:53PM 25.1920 51.5960 340° North 128 147 1,200 -900 Descending FlightAware
04:54PM 25.2140 51.5860 338° Northwest 125 144 700 -540 Descending FlightAware
04:55PM 25.2490 51.5710 339° North 123 142 300 -420 Descending FlightAware
04:57PM 25.2611 51.5651 336° Northwest  Level Estimated
04:58PM 25.2611 51.5651 324° Northwest  Level Estimated
04:59PM 25.2611 51.5651 324° Northwest  Level Estimated
05:00PM 25.2611 51.5651 324° Northwest  Level Estimated
05:01PM 25.2611 51.5651 324° Northwest  Level Estimated
05:02PM 25.2611 51.5651 324° Northwest  Level Estimated
05:03PM 25.2611 51.5651 324° Northwest  Level Estimated
05:04PM 25.2611 51.5651 324° Northwest  Level Estimated
05:05PM 25.2611 51.5651 324° Northwest  Level Estimated
05:06PM 25.2611 51.5651 324° Northwest  Level Estimated
05:07PM 25.2611 51.5651 324° Northwest  Level Estimated
05:08PM 25.2611 51.5651 324° Northwest  Level Estimated
05:09PM 25.2611 51.5651 324° Northwest  Level Estimated
05:10PM 25.2611 51.5651 324° Northwest  Level Estimated
05:11PM 25.2611 51.5651 324° Northwest  Level Estimated
05:12PM 25.2611 51.5651 324° Northwest  Level Estimated
05:13PM 25.2611 51.5651 324° Northwest  Level Estimated
05:14PM 25.2611 51.5651 324° Northwest  Level Estimated
05:15PM 25.2611 51.5651 324° Northwest  Level Estimated
05:16PM 25.2611 51.5651 324° Northwest  Level Estimated
05:17PM 25.2611 51.5651 324° Northwest  Level Estimated
05:18PM 25.2611 51.5651 324° Northwest  Level Estimated
05:19PM 25.2611 51.5651 324° Northwest  Level Estimated
05:20PM 25.2611 51.5651 324° Northwest  Level Estimated
05:21PM 25.2611 51.5651 324° Northwest  Level Estimated
05:22PM 25.2611 51.5651 324° Northwest  Level Estimated
05:23PM 25.2611 51.5651 324° Northwest  Level Estimated
05:24PM 25.2611 51.5651 324° Northwest  Level Estimated
05:25PM 25.2611 51.5651 324° Northwest  Level Estimated
05:26PM 25.2611 51.5651 324° Northwest  Level Estimated
05:27PM 25.2611 51.5651 324° Northwest  Level Estimated
05:28PM 25.2611 51.5651 324° Northwest  Level Estimated
05:29PM 25.2611 51.5651 324° Northwest  Level Estimated
05:30PM 25.2611 51.5651 324° Northwest  Level Estimated
05:31PM 25.2611 51.5651 324° Northwest  Level Estimated
05:32PM 25.2611 51.5651 324° Northwest  Level Estimated
05:33PM 25.2611 51.5651 324° Northwest  Level Estimated
05:34PM 25.2611 51.5651 324° Northwest  Level Estimated
05:35PM 25.2611 51.5651 324° Northwest  Level Estimated
05:36PM 25.2611 51.5651 324° Northwest  Level Estimated
05:37PM 25.2611 51.5651 324° Northwest  Level Estimated
05:38PM 25.2611 51.5651 324° Northwest  Level Estimated
05:39PM 25.2611 51.5651 324° Northwest  Level Estimated
05:40PM 25.2611 51.5651 324° Northwest  Level Estimated
05:41PM 25.2611 51.5651 324° Northwest  Level Estimated
05:42PM 25.2611 51.5651 324° Northwest  Level Estimated